Phoenix, Oregon
Current Conditions -  °F | °C
As of 4:53 AM on Friday 31 Oct 2014 (Local Time) from KMFR Reporting Station
Light Rain Light Rain  
Wind Chill: 54°   Ceiling: 6000
Heat Index: 54°   Visibility: 6mi
Dew Point: 53°   Wind: 0mph
Humidity: 97%   Direction: NA
Pressure: 29.76"   Gusts: NA
Location:  42.28°N, 122.82°W
Report Text: KMFR 311153Z AUTO 00000KT 6SM -RA BR FEW050 OVC060 12/12 A2976 RMK AO2 SLP071 P0005 60039 70063 T01220117 10133 20122 55005
Loading
Personal Weather Stations






























Interactive Weather Map New forecast layout! Learn more

10-Day Weather Forecast

Advertisements
Track Severe Weather on mobile